Time;durP1;ratioP1;P1;durP2;ratioP2;P2;SDS_P1;SDS_P2;PMS_P1;PMS_P2;Temp;Humidity;BMP_temperature;BMP_pressure;BME280_temperature;BME280_humidity;BME280_pressure;Samples;Min_cycle;Max_cycle;Signal;HPM_P1;HPM_P2
2022/03/07 00:00:28;;;;;;;16.15;7.68;;;;;;;2.99;100.00;102918.81;5068105;28;20029;-71
2022/03/07 00:02:54;;;;;;;17.38;8.27;;;;;;;2.88;100.00;102914.44;5057201;28;20037;-72
2022/03/07 00:05:19;;;;;;;17.50;8.75;;;;;;;2.82;100.00;102917.47;5049560;28;20025;-72
2022/03/07 00:07:45;;;;;;;13.25;7.68;;;;;;;2.80;100.00;102918.13;5054957;28;20037;-72
2022/03/07 00:10:10;;;;;;;17.05;8.05;;;;;;;2.61;100.00;102914.00;5061764;28;20025;-71
2022/03/07 00:12:36;;;;;;;11.02;7.15;;;;;;;2.52;100.00;102919.38;5054940;28;20521;-72
2022/03/07 00:15:02;;;;;;;13.52;7.97;;;;;;;2.41;100.00;102920.13;5066457;28;20499;-71
2022/03/07 00:17:27;;;;;;;17.85;7.47;;;;;;;2.30;100.00;102921.84;5064898;28;20025;-72
2022/03/07 00:19:52;;;;;;;12.88;7.95;;;;;;;2.21;100.00;102921.06;5062311;28;20043;-72
2022/03/07 00:22:18;;;;;;;15.20;8.48;;;;;;;2.15;100.00;102921.47;5044548;28;20024;-71
2022/03/07 00:24:43;;;;;;;16.98;8.82;;;;;;;2.15;100.00;102920.56;5068780;28;20095;-72
2022/03/07 00:27:08;;;;;;;14.02;8.38;;;;;;;2.12;100.00;102925.50;5055205;28;20032;-72
2022/03/07 00:29:34;;;;;;;11.10;7.88;;;;;;;2.03;100.00;102915.22;5061190;28;20104;-71
2022/03/07 00:31:59;;;;;;;16.58;8.10;;;;;;;1.98;100.00;102932.09;5042317;28;20086;-71
2022/03/07 00:34:24;;;;;;;11.35;7.28;;;;;;;1.91;100.00;102929.78;5055531;28;20388;-72
2022/03/07 00:36:50;;;;;;;11.27;8.07;;;;;;;1.82;100.00;102932.50;5048052;28;20418;-71
2022/03/07 00:39:15;;;;;;;16.75;7.90;;;;;;;1.77;100.00;102926.91;5047480;28;20118;-71
2022/03/07 00:41:41;;;;;;;13.75;7.45;;;;;;;1.75;100.00;102936.25;5063509;28;20031;-71
2022/03/07 00:44:07;;;;;;;17.92;8.27;;;;;;;1.69;100.00;102930.53;5058015;28;20031;-71
2022/03/07 00:46:32;;;;;;;11.75;7.47;;;;;;;1.71;100.00;102928.06;5061662;28;20020;-71
2022/03/07 00:48:57;;;;;;;12.15;7.85;;;;;;;1.56;100.00;102931.16;5060268;28;20081;-72
2022/03/07 00:51:24;;;;;;;13.15;7.95;;;;;;;1.43;100.00;102934.34;5063300;28;20041;-71
2022/03/07 00:53:49;;;;;;;12.95;7.63;;;;;;;1.53;100.00;102936.06;5057024;28;20044;-71
2022/03/07 00:56:15;;;;;;;13.70;8.57;;;;;;;1.50;100.00;102943.59;5060950;28;20016;-72
2022/03/07 00:58:40;;;;;;;14.02;7.93;;;;;;;1.44;100.00;102945.63;5064382;28;20028;-72
2022/03/07 01:01:05;;;;;;;11.18;7.57;;;;;;;1.34;100.00;102944.84;5057720;28;20108;-72
2022/03/07 01:03:31;;;;;;;12.82;8.23;;;;;;;1.25;100.00;102944.03;5064958;28;20600;-71
2022/03/07 01:05:56;;;;;;;13.70;8.10;;;;;;;1.31;100.00;102941.97;5060280;28;20039;-72
2022/03/07 01:08:22;;;;;;;18.92;8.35;;;;;;;1.21;100.00;102943.59;5041633;28;20405;-72
2022/03/07 01:10:48;;;;;;;12.98;7.90;;;;;;;1.23;100.00;102944.66;5059094;28;20051;-72
2022/03/07 01:13:13;;;;;;;13.32;7.50;;;;;;;1.11;100.00;102939.28;5062931;28;20069;-72
2022/03/07 01:15:39;;;;;;;12.85;7.85;;;;;;;1.07;100.00;102947.56;5060835;28;20021;-72
2022/03/07 01:18:04;;;;;;;21.42;8.60;;;;;;;1.00;100.00;102947.03;5038172;28;20431;-72
2022/03/07 01:20:30;;;;;;;14.38;7.95;;;;;;;0.96;100.00;102944.03;5062688;28;20103;-71
2022/03/07 01:22:55;;;;;;;19.35;7.78;;;;;;;0.94;100.00;102941.28;5056262;28;20035;-71
2022/03/07 01:25:21;;;;;;;12.57;7.90;;;;;;;0.90;100.00;102949.56;5054364;28;20074;-72
2022/03/07 01:27:46;;;;;;;11.45;8.07;;;;;;;0.88;100.00;102940.72;5061809;28;20024;-71
2022/03/07 01:30:11;;;;;;;15.20;8.27;;;;;;;0.88;100.00;102945.91;5060454;28;20032;-71
2022/03/07 01:32:37;;;;;;;16.98;8.02;;;;;;;0.84;100.00;102949.00;5038372;28;20064;-71
2022/03/07 01:35:04;;;;;;;13.10;7.43;;;;;;;0.75;100.00;102948.22;5060965;28;20099;-71
2022/03/07 01:37:29;;;;;;;12.38;7.65;;;;;;;0.71;100.00;102943.53;5062103;28;20177;-72
2022/03/07 01:39:55;;;;;;;15.63;8.27;;;;;;;0.75;100.00;102943.03;5056453;28;20446;-71
2022/03/07 01:42:20;;;;;;;11.73;7.38;;;;;;;0.77;100.00;102949.22;5062462;28;20141;-72
2022/03/07 01:44:45;;;;;;;17.63;8.60;;;;;;;0.69;100.00;102945.03;5048800;28;20033;-71
2022/03/07 01:47:11;;;;;;;14.77;8.63;;;;;;;0.61;100.00;102945.28;5067351;28;20082;-72
2022/03/07 01:49:36;;;;;;;11.52;7.20;;;;;;;0.58;100.00;102942.38;5062012;28;20032;-71
2022/03/07 01:52:02;;;;;;;14.18;7.38;;;;;;;0.60;100.00;102942.53;5037415;28;20099;-71
2022/03/07 01:54:28;;;;;;;11.45;7.75;;;;;;;0.56;100.00;102946.53;5045501;28;20036;-71
2022/03/07 01:56:54;;;;;;;15.45;7.50;;;;;;;0.53;100.00;102941.06;5068765;28;20032;-72
2022/03/07 01:59:23;;;;;;;10.77;7.82;;;;;;;0.52;100.00;102941.84;5058403;28;20108;-72
2022/03/07 02:01:49;;;;;;;18.08;7.80;;;;;;;0.52;100.00;102936.66;5056792;28;20033;-71
2022/03/07 02:04:15;;;;;;;14.02;7.43;;;;;;;0.54;100.00;102941.97;5063400;28;20036;-71
2022/03/07 02:06:40;;;;;;;14.02;7.85;;;;;;;0.52;100.00;102936.66;5063941;28;20082;-71
2022/03/07 02:09:07;;;;;;;15.85;7.32;;;;;;;0.50;100.00;102930.41;5067035;28;20377;-71
2022/03/07 02:11:33;;;;;;;19.63;8.10;;;;;;;0.51;100.00;102937.41;5063714;28;20029;-71
2022/03/07 02:14:19;;;;;;;19.10;8.68;;;;;;;0.56;100.00;102930.97;5051595;28;20025;-71
2022/03/07 02:16:45;;;;;;;11.82;8.02;;;;;;;0.58;100.00;102934.59;5062431;28;20028;-71
2022/03/07 02:19:12;;;;;;;11.77;8.55;;;;;;;0.70;100.00;102934.81;5046282;28;20020;-71
2022/03/07 02:21:42;;;;;;;16.02;8.32;;;;;;;0.77;100.00;102928.50;5068301;28;20030;-71
2022/03/07 02:24:07;;;;;;;12.88;8.38;;;;;;;0.91;100.00;102935.84;5052313;28;20082;-71
2022/03/07 02:26:33;;;;;;;14.35;7.50;;;;;;;1.10;100.00;102937.47;5049346;28;20028;-71
2022/03/07 02:28:58;;;;;;;16.38;8.40;;;;;;;1.12;100.00;102930.75;5069094;28;20119;-71
2022/03/07 02:31:24;;;;;;;11.50;7.65;;;;;;;1.08;100.00;102928.66;5065023;28;20021;-71
2022/03/07 02:33:49;;;;;;;11.15;7.28;;;;;;;1.10;100.00;102927.09;5042760;28;20118;-70
2022/03/07 02:36:14;;;;;;;14.90;7.60;;;;;;;1.13;100.00;102929.97;5062578;28;20028;-71
2022/03/07 02:38:40;;;;;;;11.68;7.38;;;;;;;1.20;100.00;102929.75;5035855;28;20061;-71
2022/03/07 02:41:06;;;;;;;11.93;7.72;;;;;;;1.31;100.00;102923.81;5065829;28;20094;-71
2022/03/07 02:43:31;;;;;;;16.55;7.97;;;;;;;1.37;100.00;102927.72;5059654;28;20025;-72
2022/03/07 02:45:58;;;;;;;12.95;6.93;;;;;;;1.35;100.00;102920.69;5059775;28;20074;-71
2022/03/07 02:48:24;;;;;;;15.15;7.32;;;;;;;1.34;100.00;102917.97;5045436;28;20025;-71
2022/03/07 02:50:49;;;;;;;14.07;7.45;;;;;;;1.38;100.00;102913.97;5065139;28;20431;-71
2022/03/07 02:53:15;;;;;;;12.68;8.02;;;;;;;1.37;100.00;102912.16;5063591;28;20090;-71
2022/03/07 02:55:40;;;;;;;16.13;8.23;;;;;;;1.47;100.00;102907.00;5067546;28;20016;-71
2022/03/07 02:58:05;;;;;;;17.05;7.65;;;;;;;1.50;100.00;102907.25;5058406;28;20037;-71
2022/03/07 03:00:31;;;;;;;14.95;7.68;;;;;;;1.43;100.00;102911.00;5063706;28;20039;-71
2022/03/07 03:02:57;;;;;;;10.20;6.32;;;;;;;1.43;100.00;102912.72;5060130;28;20081;-71
2022/03/07 03:05:23;;;;;;;17.88;8.05;;;;;;;1.46;100.00;102907.78;5040620;28;20020;-71
2022/03/07 03:07:50;;;;;;;12.25;7.03;;;;;;;1.46;100.00;102908.66;5066443;28;20528;-71
2022/03/07 03:10:16;;;;;;;16.17;6.82;;;;;;;1.47;100.00;102905.31;5062650;28;20162;-71
2022/03/07 03:12:42;;;;;;;16.55;8.48;;;;;;;1.50;100.00;102909.84;5063589;28;20169;-71
2022/03/07 03:15:08;;;;;;;11.98;6.68;;;;;;;1.43;100.00;102907.53;5072247;28;20135;-71
2022/03/07 03:17:34;;;;;;;14.27;7.88;;;;;;;1.33;100.00;102911.91;5047149;28;20036;-71
2022/03/07 03:19:59;;;;;;;12.23;7.68;;;;;;;1.50;100.00;102910.75;5067780;28;20051;-70
2022/03/07 03:22:24;;;;;;;18.58;7.80;;;;;;;1.52;100.00;102905.72;5066685;28;20387;-71
2022/03/07 03:24:50;;;;;;;13.18;7.57;;;;;;;1.53;100.00;102904.94;5050245;28;20025;-71
2022/03/07 03:27:15;;;;;;;14.02;7.35;;;;;;;1.48;100.00;102901.06;5065540;28;20511;-71
2022/03/07 03:29:41;;;;;;;16.30;7.32;;;;;;;1.48;100.00;102906.25;5067629;28;20024;-72
2022/03/07 03:32:06;;;;;;;13.32;7.60;;;;;;;1.47;100.00;102899.22;5054040;28;20026;-72
2022/03/07 03:34:32;;;;;;;11.38;7.47;;;;;;;1.48;100.00;102898.47;5061386;28;20033;-72
2022/03/07 03:36:57;;;;;;;12.35;7.55;;;;;;;1.33;100.00;102906.72;5064936;28;20461;-70
2022/03/07 03:39:23;;;;;;;12.57;7.43;;;;;;;1.39;100.00;102902.84;5058530;28;20025;-70
2022/03/07 03:41:49;;;;;;;13.77;7.80;;;;;;;1.37;100.00;102899.19;5075170;28;20117;-70
2022/03/07 03:44:14;;;;;;;16.42;8.23;;;;;;;1.34;100.00;102898.16;5084928;28;20468;-70
2022/03/07 03:46:40;;;;;;;11.52;8.20;;;;;;;1.44;100.00;102898.94;5069767;28;20811;-70
2022/03/07 03:49:06;;;;;;;16.08;8.10;;;;;;;1.34;100.00;102895.56;5062825;28;20025;-70
2022/03/07 03:51:31;;;;;;;16.30;8.50;;;;;;;1.42;100.00;102887.53;5073092;28;20080;-69
2022/03/07 03:53:57;;;;;;;18.52;7.82;;;;;;;1.38;100.00;102888.94;5062427;28;20102;-70
2022/03/07 03:56:22;;;;;;;12.07;7.55;;;;;;;1.36;100.00;102885.31;5050835;28;20032;-70
2022/03/07 03:58:47;;;;;;;19.75;9.55;;;;;;;1.39;100.00;102895.06;5062211;28;20044;-70
2022/03/07 04:01:13;;;;;;;16.85;8.18;;;;;;;1.41;100.00;102896.09;5059938;28;20032;-70
2022/03/07 04:03:39;;;;;;;13.45;8.55;;;;;;;1.44;100.00;102896.34;5056350;28;20465;-70
2022/03/07 04:06:06;;;;;;;13.25;8.18;;;;;;;1.45;100.00;102890.38;5061247;28;20083;-72
2022/03/07 04:08:34;;;;;;;16.30;8.65;;;;;;;1.43;100.00;102889.34;5052834;28;20033;-72
2022/03/07 04:10:59;;;;;;;12.90;7.68;;;;;;;1.47;100.00;102896.63;5068004;28;20480;-71
2022/03/07 04:13:25;;;;;;;12.15;8.15;;;;;;;1.45;100.00;102892.97;5044261;28;20024;-70
2022/03/07 04:15:50;;;;;;;13.48;8.60;;;;;;;1.52;100.00;102897.94;5062827;28;20025;-70
2022/03/07 04:18:15;;;;;;;18.17;7.95;;;;;;;1.49;100.00;102895.06;5055690;28;20024;-70
2022/03/07 04:20:42;;;;;;;13.88;8.88;;;;;;;1.45;100.00;102895.56;5067409;28;20461;-70
2022/03/07 04:23:07;;;;;;;17.13;9.30;;;;;;;1.50;100.00;102889.09;5041868;28;20025;-71
2022/03/07 04:25:33;;;;;;;16.70;9.15;;;;;;;1.48;100.00;102893.25;5062886;28;20472;-70
2022/03/07 04:28:00;;;;;;;16.52;8.90;;;;;;;1.44;100.00;102897.28;5068445;28;20480;-70
2022/03/07 04:30:25;;;;;;;14.50;9.05;;;;;;;1.48;100.00;102895.88;5042679;28;20082;-70
2022/03/07 04:32:50;;;;;;;13.75;9.43;;;;;;;1.45;100.00;102900.75;5071278;28;20036;-70
2022/03/07 04:35:16;;;;;;;15.20;8.70;;;;;;;1.38;100.00;102893.22;5046019;28;20031;-71
2022/03/07 04:37:41;;;;;;;14.52;8.30;;;;;;;1.41;100.00;102891.81;5071182;28;20465;-71
2022/03/07 04:40:10;;;;;;;17.10;8.30;;;;;;;1.45;100.00;102895.56;5067116;28;20476;-70
2022/03/07 04:42:35;;;;;;;15.98;8.43;;;;;;;1.37;100.00;102897.53;5061308;28;20078;-71
2022/03/07 04:45:01;;;;;;;14.93;8.70;;;;;;;1.28;100.00;102895.00;5078280;28;20028;-71
2022/03/07 04:47:26;;;;;;;17.30;9.18;;;;;;;1.32;100.00;102888.44;5063793;28;20418;-71
2022/03/07 04:49:51;;;;;;;12.10;8.45;;;;;;;1.34;100.00;102895.56;5061650;28;20791;-71
2022/03/07 04:52:17;;;;;;;13.48;9.63;;;;;;;1.22;100.00;102899.69;5052909;28;20048;-70
2022/03/07 04:54:42;;;;;;;13.18;8.90;;;;;;;1.18;100.00;102895.91;5053806;28;20107;-70
2022/03/07 04:57:08;;;;;;;18.23;9.25;;;;;;;1.17;100.00;102894.06;5046755;28;20029;-71
2022/03/07 04:59:33;;;;;;;18.00;10.02;;;;;;;1.13;100.00;102896.28;5068220;28;20052;-71
2022/03/07 05:01:59;;;;;;;14.77;8.65;;;;;;;1.12;100.00;102894.44;5059251;28;20111;-72
2022/03/07 05:04:24;;;;;;;15.13;9.63;;;;;;;1.08;100.00;102892.38;5056648;28;20032;-71
2022/03/07 05:06:49;;;;;;;14.48;9.63;;;;;;;1.07;100.00;102890.53;5059113;28;20035;-71
2022/03/07 05:09:15;;;;;;;11.82;8.60;;;;;;;1.04;100.00;102882.50;5067621;28;20036;-71
2022/03/07 05:11:40;;;;;;;17.67;9.30;;;;;;;0.88;100.00;102883.72;5049550;28;20051;-70
2022/03/07 05:14:06;;;;;;;12.75;8.60;;;;;;;0.84;100.00;102882.56;5068533;28;20024;-70
2022/03/07 05:16:31;;;;;;;14.60;9.05;;;;;;;0.75;100.00;102886.00;5058775;28;20338;-70
2022/03/07 05:18:57;;;;;;;15.27;8.80;;;;;;;0.67;100.00;102888.81;5042100;28;20348;-70
2022/03/07 05:21:22;;;;;;;13.30;8.93;;;;;;;0.63;100.00;102889.31;5066423;28;20444;-71
2022/03/07 05:23:47;;;;;;;16.35;8.52;;;;;;;0.56;100.00;102888.63;5053520;28;20035;-70
2022/03/07 05:26:13;;;;;;;16.75;9.88;;;;;;;0.53;100.00;102894.44;5051759;28;20020;-71
2022/03/07 05:28:38;;;;;;;13.82;9.75;;;;;;;0.46;100.00;102902.41;5062709;28;20476;-70
2022/03/07 05:31:04;;;;;;;17.35;9.43;;;;;;;0.38;100.00;102883.59;5048486;28;20475;-72
2022/03/07 05:33:29;;;;;;;12.38;8.60;;;;;;;0.31;100.00;102889.91;5048307;28;20384;-71
2022/03/07 05:35:55;;;;;;;15.90;9.02;;;;;;;0.35;100.00;102885.00;5066654;28;20025;-71
2022/03/07 05:38:20;;;;;;;14.93;9.32;;;;;;;0.24;100.00;102897.84;5062463;28;20029;-71
2022/03/07 05:40:46;;;;;;;22.05;10.23;;;;;;;0.16;100.00;102896.25;5055437;28;20400;-70
2022/03/07 05:43:12;;;;;;;13.40;9.07;;;;;;;0.21;100.00;102894.09;5057118;28;20032;-70
2022/03/07 05:45:38;;;;;;;14.80;9.43;;;;;;;0.20;100.00;102900.03;5061765;28;20100;-71
2022/03/07 05:48:04;;;;;;;14.10;9.40;;;;;;;0.14;100.00;102901.28;5056072;28;20095;-71
2022/03/07 05:50:29;;;;;;;17.45;9.63;;;;;;;0.06;100.00;102915.22;5052333;28;20396;-70
2022/03/07 05:52:54;;;;;;;14.88;9.77;;;;;;;0.11;100.00;102907.84;5059683;28;20040;-70
2022/03/07 05:55:19;;;;;;;15.13;9.05;;;;;;;0.09;100.00;102910.31;5070281;28;20025;-70
2022/03/07 05:57:45;;;;;;;10.95;8.52;;;;;;;0.18;100.00;102912.84;5061008;28;20039;-70
2022/03/07 06:00:11;;;;;;;17.75;8.95;;;;;;;0.11;100.00;102923.38;5059421;28;20048;-71
2022/03/07 06:02:37;;;;;;;16.13;8.88;;;;;;;0.11;100.00;102924.31;5049345;28;20024;-71
2022/03/07 06:05:03;;;;;;;13.35;9.30;;;;;;;0.00;100.00;102930.19;5064408;28;20074;-70
2022/03/07 06:07:29;;;;;;;17.33;9.00;;;;;;;0.03;100.00;102937.28;5052376;28;20044;-71
2022/03/07 06:09:54;;;;;;;18.45;9.13;;;;;;;0.07;100.00;102931.63;5048652;28;20032;-70
2022/03/07 06:12:20;;;;;;;19.15;9.18;;;;;;;0.04;100.00;102933.94;5050936;28;20494;-70
2022/03/07 06:14:45;;;;;;;15.68;10.15;;;;;;;0.06;100.00;102940.19;5055633;28;20025;-71
2022/03/07 06:17:10;;;;;;;20.20;9.30;;;;;;;0.09;100.00;102935.28;5056608;28;20388;-71
2022/03/07 06:19:36;;;;;;;16.50;9.38;;;;;;;0.02;100.00;102938.09;5056058;28;20461;-72
2022/03/07 06:22:01;;;;;;;16.98;9.88;;;;;;;0.10;100.00;102935.44;5060329;28;20028;-71
2022/03/07 06:24:29;;;;;;;19.55;10.02;;;;;;;0.02;100.00;102931.22;5065340;28;20112;-72
2022/03/07 06:26:55;;;;;;;19.17;10.13;;;;;;;0.01;100.00;102929.41;5064580;28;20405;-71
2022/03/07 06:29:21;;;;;;;17.17;9.70;;;;;;;0.06;100.00;102940.19;5066828;28;20151;-71
2022/03/07 06:31:47;;;;;;;21.27;9.30;;;;;;;0.01;100.00;102933.66;5063201;28;20666;-71
2022/03/07 06:34:12;;;;;;;15.80;9.73;;;;;;;0.08;100.00;102943.81;5041282;28;20389;-73
2022/03/07 06:36:39;;;;;;;18.60;10.15;;;;;;;-0.01;100.00;102938.72;5059545;28;20013;-71
2022/03/07 06:39:05;;;;;;;17.08;10.20;;;;;;;0.03;100.00;102947.66;5060191;28;20040;-71
2022/03/07 06:41:30;;;;;;;22.17;9.13;;;;;;;0.03;100.00;102945.06;5070697;28;20488;-71
2022/03/07 06:43:56;;;;;;;14.48;9.27;;;;;;;0.03;100.00;102946.00;5075622;28;20488;-70
2022/03/07 06:46:21;;;;;;;16.05;9.13;;;;;;;0.11;100.00;102947.63;5055608;28;20158;-72
2022/03/07 06:48:46;;;;;;;17.65;10.23;;;;;;;0.05;100.00;102943.53;5056108;28;20074;-71
2022/03/07 06:51:12;;;;;;;14.88;9.65;;;;;;;0.08;100.00;102949.94;5057957;28;20482;-72
2022/03/07 06:53:38;;;;;;;16.88;9.88;;;;;;;0.08;100.00;102946.41;5058414;28;20115;-71
2022/03/07 06:56:03;;;;;;;15.32;10.10;;;;;;;0.13;100.00;102948.66;5065288;28;20033;-73
2022/03/07 06:58:28;;;;;;;21.63;10.52;;;;;;;0.15;100.00;102952.31;5063006;28;20476;-72
2022/03/07 07:00:54;;;;;;;21.55;10.60;;;;;;;0.17;100.00;102950.75;5045115;28;20064;-71
2022/03/07 07:03:19;;;;;;;16.67;10.45;;;;;;;0.16;100.00;102953.19;5057894;28;20013;-71
2022/03/07 07:05:44;;;;;;;17.95;10.88;;;;;;;0.20;100.00;102959.59;5062787;28;20033;-72
2022/03/07 07:08:10;;;;;;;14.18;9.38;;;;;;;0.21;100.00;102961.41;5065171;28;20044;-72
2022/03/07 07:10:36;;;;;;;14.80;10.05;;;;;;;0.22;100.00;102956.38;5071165;28;20100;-72
2022/03/07 07:13:01;;;;;;;20.02;9.63;;;;;;;0.28;100.00;102963.78;5053351;28;20119;-73
2022/03/07 07:15:27;;;;;;;16.65;10.80;;;;;;;0.25;100.00;102955.75;5055926;28;20090;-71
2022/03/07 07:17:52;;;;;;;16.17;10.27;;;;;;;0.26;100.00;102958.47;5064974;28;20082;-71
2022/03/07 07:20:17;;;;;;;20.35;11.63;;;;;;;0.17;100.00;102960.22;5062065;28;20048;-71
2022/03/07 07:22:42;;;;;;;25.70;11.27;;;;;;;0.27;100.00;102955.13;5065312;28;20056;-71
2022/03/07 07:25:09;;;;;;;19.45;10.43;;;;;;;0.31;100.00;102964.06;5056758;28;20031;-71
2022/03/07 07:27:35;;;;;;;21.98;10.65;;;;;;;0.38;100.00;102958.72;5068572;28;20487;-71
2022/03/07 07:30:01;;;;;;;20.80;11.05;;;;;;;0.42;100.00;102965.06;5066116;28;20108;-72
2022/03/07 07:32:27;;;;;;;20.30;11.20;;;;;;;0.50;100.00;102967.59;5064634;28;20063;-72
2022/03/07 07:34:53;;;;;;;24.27;11.50;;;;;;;0.51;100.00;102958.13;5068002;28;20071;-72
2022/03/07 07:37:18;;;;;;;18.67;10.50;;;;;;;0.54;100.00;102968.78;5043707;28;20021;-72
2022/03/07 07:39:43;;;;;;;18.70;10.00;;;;;;;0.56;100.00;102964.66;5064524;28;20353;-71
2022/03/07 07:42:09;;;;;;;18.77;10.70;;;;;;;0.60;100.00;102958.97;5044722;28;20452;-72
2022/03/07 07:44:34;;;;;;;18.42;10.90;;;;;;;0.67;100.00;102961.34;5052600;28;20029;-72
2022/03/07 07:47:01;;;;;;;17.38;11.00;;;;;;;0.73;100.00;102960.09;5061442;28;20025;-71
2022/03/07 07:49:27;;;;;;;18.15;11.70;;;;;;;0.73;100.00;102955.81;5068044;28;20025;-72
2022/03/07 07:51:52;;;;;;;16.23;10.57;;;;;;;0.76;100.00;102968.13;5056702;28;20060;-71
2022/03/07 07:54:18;;;;;;;17.40;11.20;;;;;;;0.79;100.00;102956.38;5065945;28;20449;-73
2022/03/07 07:56:43;;;;;;;17.38;10.80;;;;;;;0.83;100.00;102968.84;5069815;28;20074;-70
2022/03/07 07:59:10;;;;;;;18.95;11.38;;;;;;;0.88;100.00;102971.84;5065373;28;20074;-72
2022/03/07 08:01:36;;;;;;;20.55;11.15;;;;;;;0.94;100.00;102964.63;5036340;28;20029;-74
2022/03/07 08:04:01;;;;;;;19.88;10.45;;;;;;;0.99;100.00;102965.97;5059075;28;20048;-76
2022/03/07 08:06:26;;;;;;;22.58;12.25;;;;;;;1.04;100.00;102963.75;5057533;28;20028;-75
2022/03/07 08:08:52;;;;;;;17.42;11.10;;;;;;;1.09;100.00;102961.59;5047930;28;20111;-75
2022/03/07 08:11:18;;;;;;;20.50;11.73;;;;;;;1.11;100.00;102960.97;5069206;28;20025;-76
2022/03/07 08:13:44;;;;;;;16.45;10.43;;;;;;;1.17;100.00;102964.09;5055923;28;20093;-75
2022/03/07 08:16:09;;;;;;;18.45;10.88;;;;;;;1.20;100.00;102955.69;5055521;28;20028;-75
2022/03/07 08:18:34;;;;;;;15.23;9.93;;;;;;;1.28;100.00;102959.84;5055861;28;20033;-75
2022/03/07 08:21:00;;;;;;;16.77;10.95;;;;;;;1.33;100.00;102968.97;5055048;28;20020;-75
2022/03/07 08:23:26;;;;;;;15.88;10.60;;;;;;;1.38;100.00;102968.44;5055121;28;20471;-75
2022/03/07 08:25:52;;;;;;;15.52;10.50;;;;;;;1.45;99.98;102963.94;5060714;28;20381;-75
2022/03/07 08:28:17;;;;;;;18.60;11.38;;;;;;;1.48;99.77;102974.59;5051421;28;20025;-74
2022/03/07 08:30:42;;;;;;;15.82;10.80;;;;;;;1.50;99.20;102969.53;5056160;28;20024;-75
2022/03/07 08:33:08;;;;;;;18.65;11.07;;;;;;;1.56;99.09;102970.09;5067445;28;20032;-75
2022/03/07 08:35:33;;;;;;;15.43;10.57;;;;;;;1.62;99.12;102968.00;5049420;28;20020;-75
2022/03/07 08:37:59;;;;;;;15.63;10.93;;;;;;;1.68;97.70;102965.97;5049659;28;20056;-75
2022/03/07 08:40:25;;;;;;;17.35;10.38;;;;;;;1.80;97.43;102965.19;5065709;28;20358;-74
2022/03/07 08:42:51;;;;;;;16.95;10.77;;;;;;;1.86;96.68;102957.94;5071248;28;20035;-74
2022/03/07 08:45:17;;;;;;;14.60;10.25;;;;;;;1.93;96.56;102962.88;5056992;28;20401;-74
2022/03/07 08:47:42;;;;;;;14.95;10.10;;;;;;;2.01;95.62;102967.03;5069032;28;20085;-74
2022/03/07 08:50:10;;;;;;;13.93;10.30;;;;;;;2.14;94.80;102965.50;5070463;28;20084;-74
2022/03/07 08:52:36;;;;;;;13.35;9.55;;;;;;;2.26;90.85;102955.25;5072798;28;20409;-75
2022/03/07 08:55:03;;;;;;;13.05;8.02;;;;;;;2.38;89.79;102955.38;5053737;28;20066;-74
2022/03/07 08:57:28;;;;;;;16.70;8.75;;;;;;;2.51;87.96;102953.03;5072072;28;20024;-74
2022/03/07 08:59:53;;;;;;;13.45;8.15;;;;;;;2.63;87.39;102953.09;5067957;28;20543;-74
2022/03/07 09:02:19;;;;;;;10.75;8.18;;;;;;;2.77;86.59;102956.84;5053122;28;20107;-73
2022/03/07 09:04:44;;;;;;;11.35;8.30;;;;;;;2.85;87.65;102953.22;5062931;28;20028;-73
2022/03/07 09:07:10;;;;;;;17.75;9.85;;;;;;;3.06;87.35;102945.34;5070564;28;20520;-74
2022/03/07 09:09:35;;;;;;;14.23;8.20;;;;;;;3.30;84.73;102957.72;5052475;28;20020;-74
2022/03/07 09:12:03;;;;;;;9.93;7.22;;;;;;;3.50;83.62;102950.56;5055026;28;20050;-73
2022/03/07 09:14:29;;;;;;;8.68;6.72;;;;;;;3.70;82.28;102945.28;5054316;28;20032;-74
2022/03/07 09:16:54;;;;;;;9.23;6.38;;;;;;;3.87;81.83;102954.38;5050453;28;20028;-74
2022/03/07 09:19:19;;;;;;;9.98;6.28;;;;;;;3.97;78.13;102948.19;5071757;28;20435;-73
2022/03/07 09:21:45;;;;;;;8.52;6.47;;;;;;;4.25;77.84;102937.31;5065156;28;20089;-73
2022/03/07 09:24:10;;;;;;;10.35;6.40;;;;;;;4.47;76.29;102933.72;5063434;28;20021;-73
2022/03/07 09:26:36;;;;;;;9.05;6.40;;;;;;;4.64;74.10;102933.28;5069762;28;20032;-72
2022/03/07 09:29:01;;;;;;;7.53;5.97;;;;;;;4.71;74.07;102927.72;5068506;28;20340;-73
2022/03/07 09:31:27;;;;;;;9.07;6.60;;;;;;;5.12;74.85;102926.31;5050913;28;20111;-74
2022/03/07 09:33:52;;;;;;;9.75;5.78;;;;;;;5.13;71.63;102919.38;5051833;28;20418;-75
2022/03/07 09:36:18;;;;;;;8.35;6.07;;;;;;;5.44;71.32;102918.97;5063079;28;20127;-75
2022/03/07 09:38:44;;;;;;;10.00;6.65;;;;;;;5.74;69.17;102915.03;5055419;28;20421;-74
2022/03/07 09:41:10;;;;;;;9.77;5.88;;;;;;;5.84;68.71;102914.84;5062125;28;20079;-74
2022/03/07 09:43:36;;;;;;;7.30;5.15;;;;;;;6.15;67.53;102910.88;5046732;28;20028;-74
2022/03/07 09:46:03;;;;;;;7.35;5.38;;;;;;;6.51;64.92;102906.28;5057592;28;20033;-74
2022/03/07 09:48:28;;;;;;;9.07;5.70;;;;;;;6.74;65.01;102910.44;5065577;28;20028;-74
2022/03/07 09:50:55;;;;;;;6.40;5.35;;;;;;;6.90;63.08;102907.09;5048778;28;20043;-74
2022/03/07 09:53:20;;;;;;;8.52;5.53;;;;;;;6.88;63.04;102906.13;5070793;28;20093;-74
2022/03/07 09:55:46;;;;;;;5.88;5.07;;;;;;;6.82;60.99;102898.75;5052750;28;20115;-73
2022/03/07 09:58:13;;;;;;;9.20;4.68;;;;;;;7.15;60.52;102898.22;5047796;28;20027;-75
2022/03/07 10:00:43;;;;;;;6.80;4.55;;;;;;;7.24;59.89;102893.56;5059180;28;20056;-74
2022/03/07 10:03:11;;;;;;;9.25;6.32;;;;;;;7.51;57.60;102888.25;5052029;28;20033;-73
2022/03/07 10:05:43;;;;;;;5.53;5.03;;;;;;;7.55;57.98;102880.66;5065017;28;20044;-74
2022/03/07 10:08:10;;;;;;;8.93;5.53;;;;;;;7.65;56.73;102882.16;5055237;28;20031;-73
2022/03/07 10:10:40;;;;;;;8.77;5.53;;;;;;;7.80;59.93;102886.50;5054231;28;20143;-74
2022/03/07 10:13:08;;;;;;;8.25;5.50;;;;;;;7.92;55.93;102866.28;5037173;28;20025;-73
2022/03/07 10:15:34;;;;;;;6.13;5.18;;;;;;;7.54;59.31;102877.94;5048919;28;20037;-73
2022/03/07 10:17:59;;;;;;;6.95;5.18;;;;;;;7.73;57.17;102862.56;5076653;28;20025;-74
2022/03/07 10:20:26;;;;;;;11.65;5.90;;;;;;;7.70;55.75;102864.97;5073154;28;20039;-74
2022/03/07 10:22:57;;;;;;;7.45;5.70;;;;;;;7.98;56.80;102860.53;5055168;28;20464;-75
2022/03/07 10:25:29;;;;;;;9.07;5.80;;;;;;;8.16;55.47;102858.97;5072602;28;20081;-75
2022/03/07 10:27:56;;;;;;;9.35;5.22;;;;;;;8.32;56.89;102860.78;5072079;28;20396;-74
2022/03/07 10:30:24;;;;;;;10.60;5.43;;;;;;;8.31;55.65;102861.59;5072378;28;20396;-74
2022/03/07 10:32:56;;;;;;;8.82;5.65;;;;;;;8.40;55.52;102856.88;5052620;28;20028;-74
2022/03/07 10:35:27;;;;;;;9.38;5.90;;;;;;;8.36;54.46;102847.03;5062625;28;20029;-74
2022/03/07 10:38:01;;;;;;;9.18;5.22;;;;;;;8.87;54.89;102846.41;5057369;28;20127;-74
2022/03/07 10:40:30;;;;;;;11.00;5.80;;;;;;;8.84;55.38;102838.38;5051990;28;20032;-74
2022/03/07 10:43:00;;;;;;;6.13;5.38;;;;;;;8.92;54.78;102839.69;5069941;28;20028;-73
2022/03/07 10:45:26;;;;;;;7.35;5.45;;;;;;;8.94;54.54;102843.31;5047200;28;20464;-74
2022/03/07 10:47:54;;;;;;;8.13;5.90;;;;;;;9.08;56.45;102839.72;5044752;28;20037;-74
2022/03/07 10:50:22;;;;;;;9.32;5.70;;;;;;;9.51;55.33;102828.00;5061363;28;20025;-74
2022/03/07 10:52:50;;;;;;;7.22;5.43;;;;;;;9.10;53.48;102830.22;5064646;28;20102;-74
2022/03/07 10:55:22;;;;;;;7.85;6.18;;;;;;;9.37;51.90;102824.66;5072864;28;20059;-74
2022/03/07 10:57:48;;;;;;;10.27;5.00;;;;;;;9.55;50.92;102822.09;5069820;28;20028;-75
2022/03/07 11:00:18;;;;;;;8.13;5.32;;;;;;;10.10;49.14;102813.50;5058426;28;20040;-74
2022/03/07 11:02:45;;;;;;;7.82;5.50;;;;;;;10.06;48.83;102810.63;5056770;28;20029;-73
2022/03/07 11:05:13;;;;;;;6.40;5.47;;;;;;;10.27;47.08;102810.81;5056509;28;20051;-74
2022/03/07 11:07:41;;;;;;;7.30;5.40;;;;;;;10.30;46.98;102806.59;5038609;28;20029;-73
2022/03/07 11:10:08;;;;;;;6.32;5.13;;;;;;;10.56;45.49;102806.09;5055949;28;20415;-72
2022/03/07 11:12:35;;;;;;;8.80;5.45;;;;;;;10.59;44.63;102795.72;5037953;28;20480;-73